Time,TemperatureF,DewpointF,PressureIn,WindDirection,WindDirectionDegrees,WindSpeedMPH,WindSpeedGustMPH,Humidity,HourlyPrecipIn,Conditions,Clouds,dailyrainin,SoftwareType,DateUTC
2013-01-25 00:15:00,42.1,26.0,30.40,WSW,249,2.0,-999.0,53,-99.99,,,0.00,weatherlink.com 1.10,2013-01-25 05:15:00,
2013-01-25 00:30:00,42.2,27.0,30.39,WSW,258,0.0,-999.0,55,-99.99,,,0.00,weatherlink.com 1.10,2013-01-25 05:30:00,
2013-01-25 00:45:00,42.3,27.0,30.39,WSW,243,0.0,-999.0,56,-99.99,,,0.00,weatherlink.com 1.10,2013-01-25 05:45:00,
2013-01-25 01:00:00,42.6,28.0,30.40,WSW,255,1.0,-999.0,56,-99.99,,,0.00,weatherlink.com 1.10,2013-01-25 06:00:00,
2013-01-25 01:15:00,42.3,27.0,30.39,SE,130,0.0,-999.0,56,-99.99,,,0.00,weatherlink.com 1.10,2013-01-25 06:15:00,
2013-01-25 01:30:00,42.1,27.0,30.39,WSW,241,0.0,-999.0,56,-99.99,,,0.00,weatherlink.com 1.10,2013-01-25 06:30:00,
2013-01-25 01:45:00,41.8,27.0,30.40,WSW,239,0.0,-999.0,55,-99.99,,,0.00,weatherlink.com 1.10,2013-01-25 06:45:00,
2013-01-25 02:00:00,41.2,26.0,30.40,WSW,250,3.0,-999.0,55,-99.99,,,0.00,weatherlink.com 1.10,2013-01-25 07:00:00,
2013-01-25 02:15:00,40.6,25.0,30.40,WNW,291,0.0,-999.0,54,-99.99,,,0.00,weatherlink.com 1.10,2013-01-25 07:15:00,
2013-01-25 02:30:00,39.9,24.0,30.40,WSW,244,0.0,-999.0,53,-99.99,,,0.00,weatherlink.com 1.10,2013-01-25 07:30:00,
2013-01-25 02:45:00,39.3,23.0,30.40,East,83,0.0,-999.0,53,-99.99,,,0.00,weatherlink.com 1.10,2013-01-25 07:45:00,
2013-01-25 03:00:00,38.8,23.0,30.40,WSW,247,0.0,-999.0,53,-99.99,,,0.00,weatherlink.com 1.10,2013-01-25 08:00:00,
2013-01-25 03:15:00,38.3,23.0,30.40,WNW,286,1.0,-999.0,54,-99.99,,,0.00,weatherlink.com 1.10,2013-01-25 08:15:00,
2013-01-25 03:31:00,37.9,23.0,30.40,WNW,289,0.0,-999.0,55,-99.99,,,0.00,weatherlink.com 1.10,2013-01-25 08:31:00,
2013-01-25 03:46:00,37.3,22.0,30.40,WNW,289,0.0,-999.0,55,-99.99,,,0.00,weatherlink.com 1.10,2013-01-25 08:46:00,
2013-01-25 04:01:00,36.8,21.0,30.41,WNW,287,1.0,-999.0,54,-99.99,,,0.00,weatherlink.com 1.10,2013-01-25 09:01:00,
2013-01-25 04:16:00,36.2,21.0,30.41,SW,224,0.0,-999.0,54,-99.99,,,0.00,weatherlink.com 1.10,2013-01-25 09:16:00,
2013-01-25 04:31:00,35.8,20.0,30.41,SSW,209,1.0,-999.0,54,-99.99,,,0.00,weatherlink.com 1.10,2013-01-25 09:31:00,
2013-01-25 04:46:00,35.6,21.0,30.41,WSW,239,0.0,-999.0,55,-99.99,,,0.00,weatherlink.com 1.10,2013-01-25 09:46:00,
2013-01-25 05:01:00,35.5,21.0,30.40,SW,214,0.0,-999.0,56,-99.99,,,0.00,weatherlink.com 1.10,2013-01-25 10:01:00,
2013-01-25 05:16:00,35.3,20.0,30.38,SW,214,0.0,-999.0,55,-99.99,,,0.00,weatherlink.com 1.10,2013-01-25 10:16:00,
2013-01-25 05:31:00,35.0,21.0,30.38,SW,214,0.0,-999.0,56,-99.99,,,0.00,weatherlink.com 1.10,2013-01-25 10:31:00,
2013-01-25 05:46:00,34.9,20.0,30.37,SW,214,0.0,-999.0,56,-99.99,,,0.00,weatherlink.com 1.10,2013-01-25 10:46:00,
2013-01-25 06:01:00,34.9,20.0,30.37,SW,214,0.0,-999.0,56,-99.99,,,0.00,weatherlink.com 1.10,2013-01-25 11:01:00,
2013-01-25 06:16:00,34.6,20.0,30.37,SW,214,0.0,-999.0,56,-99.99,,,0.00,weatherlink.com 1.10,2013-01-25 11:16:00,
2013-01-25 06:31:00,34.6,21.0,30.38,SW,214,0.0,-999.0,57,-99.99,,,0.00,weatherlink.com 1.10,2013-01-25 11:31:00,
2013-01-25 06:46:00,34.6,21.0,30.38,SW,220,0.0,-999.0,57,-99.99,,,0.00,weatherlink.com 1.10,2013-01-25 11:46:00,
2013-01-25 07:01:00,34.7,21.0,30.38,West,262,0.0,-999.0,58,-99.99,,,0.00,weatherlink.com 1.10,2013-01-25 12:01:00,
2013-01-25 07:17:00,35.0,22.0,30.38,WSW,253,0.0,-999.0,59,-99.99,,,0.00,weatherlink.com 1.10,2013-01-25 12:17:00,
2013-01-25 07:31:00,35.2,22.0,30.38,WSW,252,0.0,-999.0,59,-99.99,,,0.00,weatherlink.com 1.10,2013-01-25 12:31:00,
2013-01-25 07:46:00,35.3,23.0,30.37,SSW,212,0.0,-999.0,60,-99.99,,,0.00,weatherlink.com 1.10,2013-01-25 12:46:00,
2013-01-25 08:01:00,35.5,23.0,30.36,SSW,212,0.0,-999.0,60,-99.99,,,0.00,weatherlink.com 1.10,2013-01-25 13:01:00,
2013-01-25 08:16:00,35.8,23.0,30.36,SSW,212,0.0,-999.0,60,-99.99,,,0.00,weatherlink.com 1.10,2013-01-25 13:16:00,
2013-01-25 08:31:00,36.2,23.0,30.37,SSW,212,0.0,-999.0,60,-99.99,,,0.00,weatherlink.com 1.10,2013-01-25 13:31:00,
2013-01-25 08:46:00,36.8,24.0,30.36,South,189,0.0,-999.0,60,-99.99,,,0.00,weatherlink.com 1.10,2013-01-25 13:46:00,
2013-01-25 09:01:00,37.6,24.0,30.36,West,275,0.0,-999.0,59,-99.99,,,0.00,weatherlink.com 1.10,2013-01-25 14:01:00,
2013-01-25 09:16:00,38.2,25.0,30.36,West,261,1.0,-999.0,59,-99.99,,,0.00,weatherlink.com 1.10,2013-01-25 14:16:00,
2013-01-25 09:31:00,39.1,26.0,30.37,SSW,199,0.0,-999.0,59,-99.99,,,0.00,weatherlink.com 1.10,2013-01-25 14:31:00,
2013-01-25 09:46:00,40.3,27.0,30.37,SSE,150,1.0,-999.0,59,-99.99,,,0.00,weatherlink.com 1.10,2013-01-25 14:46:00,
2013-01-25 10:01:00,41.2,27.0,30.38,WSW,244,0.0,-999.0,58,-99.99,,,0.00,weatherlink.com 1.10,2013-01-25 15:01:00,
2013-01-25 10:16:00,42.3,28.0,30.38,South,184,0.0,-999.0,57,-99.99,,,0.00,weatherlink.com 1.10,2013-01-25 15:16:00,
2013-01-25 10:31:00,43.6,28.0,30.38,SE,132,1.0,-999.0,55,-99.99,,,0.00,weatherlink.com 1.10,2013-01-25 15:31:00,
2013-01-25 10:46:00,44.9,29.0,30.37,SSE,168,0.0,-999.0,53,-99.99,,,0.00,weatherlink.com 1.10,2013-01-25 15:46:00,
2013-01-25 11:01:00,46.2,29.0,30.35,SW,219,0.0,-999.0,52,-99.99,,,0.00,weatherlink.com 1.10,2013-01-25 16:01:00,
2013-01-25 11:16:00,48.8,30.0,30.34,WSW,251,0.0,-999.0,49,-99.99,,,0.00,weatherlink.com 1.10,2013-01-25 16:16:00,
2013-01-25 11:31:00,50.8,31.0,30.34,West,276,0.0,-999.0,46,-99.99,,,0.00,weatherlink.com 1.10,2013-01-25 16:31:00,
2013-01-25 11:46:00,51.1,31.0,30.32,SSW,195,0.0,-999.0,46,-99.99,,,0.00,weatherlink.com 1.10,2013-01-25 16:46:00,
2013-01-25 12:01:00,52.3,31.0,30.31,SSW,213,0.0,-999.0,45,-99.99,,,0.00,weatherlink.com 1.10,2013-01-25 17:01:00,
2013-01-25 12:16:00,53.6,33.0,30.29,SSW,212,0.0,-999.0,45,-99.99,,,0.00,weatherlink.com 1.10,2013-01-25 17:16:00,
2013-01-25 12:31:00,54.7,34.0,30.28,SSW,212,0.0,-999.0,45,-99.99,,,0.00,weatherlink.com 1.10,2013-01-25 17:31:00,
2013-01-25 12:47:00,57.2,35.0,30.26,SSW,203,0.0,-999.0,43,-99.99,,,0.00,weatherlink.com 1.10,2013-01-25 17:47:00,
2013-01-25 13:02:00,59.3,37.0,30.26,East,85,0.0,-999.0,43,-99.99,,,0.00,weatherlink.com 1.10,2013-01-25 18:02:00,
2013-01-25 13:17:00,60.4,38.0,30.25,SW,218,0.0,-999.0,43,-99.99,,,0.00,weatherlink.com 1.10,2013-01-25 18:17:00,
2013-01-25 13:32:00,62.0,37.0,30.25,SSE,153,0.0,-999.0,40,-99.99,,,0.00,weatherlink.com 1.10,2013-01-25 18:32:00,
2013-01-25 13:47:00,63.4,38.0,30.23,SSE,153,0.0,-999.0,39,-99.99,,,0.00,weatherlink.com 1.10,2013-01-25 18:47:00,
2013-01-25 14:02:00,64.0,38.0,30.22,SE,129,0.0,-999.0,39,-99.99,,,0.00,weatherlink.com 1.10,2013-01-25 19:02:00,
2013-01-25 14:17:00,62.7,38.0,30.22,SE,129,0.0,-999.0,41,-99.99,,,0.00,weatherlink.com 1.10,2013-01-25 19:17:00,
2013-01-25 14:32:00,63.5,39.0,30.21,SSW,211,0.0,-999.0,41,-99.99,,,0.00,weatherlink.com 1.10,2013-01-25 19:32:00,
2013-01-25 14:47:00,64.0,38.0,30.20,SE,137,0.0,-999.0,39,-99.99,,,0.00,weatherlink.com 1.10,2013-01-25 19:47:00,
2013-01-25 15:02:00,63.9,39.0,30.21,SE,138,3.0,-999.0,40,-99.99,,,0.00,weatherlink.com 1.10,2013-01-25 20:02:00,
2013-01-25 15:17:00,62.9,39.0,30.22,South,177,0.0,-999.0,41,-99.99,,,0.00,weatherlink.com 1.10,2013-01-25 20:17:00,
2013-01-25 15:32:00,61.2,40.0,30.20,South,177,0.0,-999.0,45,-99.99,,,0.00,weatherlink.com 1.10,2013-01-25 20:32:00,
2013-01-25 15:47:00,60.5,39.0,30.20,South,177,0.0,-999.0,46,-99.99,,,0.00,weatherlink.com 1.10,2013-01-25 20:47:00,
2013-01-25 16:02:00,60.4,40.0,30.20,South,177,1.0,-999.0,47,-99.99,,,0.00,weatherlink.com 1.10,2013-01-25 21:02:00,
2013-01-25 16:17:00,60.4,40.0,30.19,South,177,0.0,-999.0,47,-99.99,,,0.00,weatherlink.com 1.10,2013-01-25 21:17:00,
2013-01-25 16:32:00,60.5,40.0,30.20,South,177,0.0,-999.0,48,-99.99,,,0.00,weatherlink.com 1.10,2013-01-25 21:32:00,
2013-01-25 16:47:00,59.8,40.0,30.18,South,177,0.0,-999.0,49,-99.99,,,0.00,weatherlink.com 1.10,2013-01-25 21:47:00,
2013-01-25 17:02:00,59.5,41.0,30.18,South,177,0.0,-999.0,50,-99.99,,,0.00,weatherlink.com 1.10,2013-01-25 22:02:00,
2013-01-25 17:17:00,59.2,41.0,30.18,South,177,0.0,-999.0,51,-99.99,,,0.00,weatherlink.com 1.10,2013-01-25 22:17:00,
2013-01-25 17:32:00,58.4,41.0,30.18,South,177,0.0,-999.0,52,-99.99,,,0.00,weatherlink.com 1.10,2013-01-25 22:32:00,
2013-01-25 17:47:00,57.5,41.0,30.18,South,177,0.0,-999.0,54,-99.99,,,0.00,weatherlink.com 1.10,2013-01-25 22:47:00,
2013-01-25 18:02:00,56.6,40.0,30.18,South,177,0.0,-999.0,55,-99.99,,,0.00,weatherlink.com 1.10,2013-01-25 23:02:00,
2013-01-25 18:17:00,56.0,41.0,30.18,South,177,0.0,-999.0,57,-99.99,,,0.00,weatherlink.com 1.10,2013-01-25 23:17:00,
2013-01-25 18:32:00,55.1,40.0,30.18,South,177,0.0,-999.0,58,-99.99,,,0.00,weatherlink.com 1.10,2013-01-25 23:32:00,
2013-01-25 18:47:00,54.5,40.0,30.18,South,177,0.0,-999.0,59,-99.99,,,0.00,weatherlink.com 1.10,2013-01-25 23:47:00,
2013-01-25 19:02:00,54.1,40.0,30.18,South,177,0.0,-999.0,60,-99.99,,,0.00,weatherlink.com 1.10,2013-01-26 00:02:00,
2013-01-25 19:17:00,53.8,40.0,30.18,South,177,0.0,-999.0,61,-99.99,,,0.00,weatherlink.com 1.10,2013-01-26 00:17:00,
2013-01-25 19:32:00,53.2,40.0,30.18,South,177,0.0,-999.0,62,-99.99,,,0.00,weatherlink.com 1.10,2013-01-26 00:32:00,
2013-01-25 19:47:00,52.9,40.0,30.18,South,177,0.0,-999.0,62,-99.99,,,0.00,weatherlink.com 1.10,2013-01-26 00:47:00,
2013-01-25 20:02:00,52.6,40.0,30.18,South,177,0.0,-999.0,63,-99.99,,,0.00,weatherlink.com 1.10,2013-01-26 01:02:00,
2013-01-25 20:17:00,52.3,40.0,30.18,South,177,0.0,-999.0,63,-99.99,,,0.00,weatherlink.com 1.10,2013-01-26 01:17:00,
2013-01-25 20:32:00,51.6,40.0,30.17,South,177,0.0,-999.0,64,-99.99,,,0.00,weatherlink.com 1.10,2013-01-26 01:32:00,
2013-01-25 20:47:00,51.1,40.0,30.17,South,177,0.0,-999.0,65,-99.99,,,0.00,weatherlink.com 1.10,2013-01-26 01:47:00,
2013-01-25 21:02:00,51.0,40.0,30.17,South,177,0.0,-999.0,66,-99.99,,,0.00,weatherlink.com 1.10,2013-01-26 02:02:00,
2013-01-25 21:17:00,51.0,40.0,30.17,South,177,0.0,-999.0,66,-99.99,,,0.00,weatherlink.com 1.10,2013-01-26 02:17:00,
2013-01-25 21:32:00,51.4,41.0,30.18,South,177,0.0,-999.0,67,-99.99,,,0.00,weatherlink.com 1.10,2013-01-26 02:32:00,
2013-01-25 21:47:00,51.6,41.0,30.17,South,177,0.0,-999.0,67,-99.99,,,0.00,weatherlink.com 1.10,2013-01-26 02:47:00,
2013-01-25 22:02:00,51.7,41.0,30.17,South,177,0.0,-999.0,68,-99.99,,,0.00,weatherlink.com 1.10,2013-01-26 03:02:00,
2013-01-25 22:17:00,51.9,42.0,30.17,South,177,0.0,-999.0,69,-99.99,,,0.00,weatherlink.com 1.10,2013-01-26 03:17:00,
2013-01-25 22:32:00,52.0,42.0,30.17,South,177,0.0,-999.0,70,-99.99,,,0.00,weatherlink.com 1.10,2013-01-26 03:32:00,
2013-01-25 22:47:00,52.2,43.0,30.17,South,177,0.0,-999.0,70,-99.99,,,0.00,weatherlink.com 1.10,2013-01-26 03:47:00,
2013-01-25 23:02:00,52.5,43.0,30.16,SSE,164,0.0,-999.0,70,-99.99,,,0.00,weatherlink.com 1.10,2013-01-26 04:02:00,
2013-01-25 23:17:00,52.6,43.0,30.16,SSE,164,0.0,-999.0,69,-99.99,,,0.00,weatherlink.com 1.10,2013-01-26 04:17:00,
2013-01-25 23:32:00,52.8,42.0,30.16,SSE,164,0.0,-999.0,68,-99.99,,,0.00,weatherlink.com 1.10,2013-01-26 04:32:00,
2013-01-25 23:47:00,52.8,42.0,30.16,SSE,164,2.0,-999.0,68,-99.99,,,0.00,weatherlink.com 1.10,2013-01-26 04:47:00,